Time;durP1;ratioP1;P1;durP2;ratioP2;P2;SDS_P1;SDS_P2;PMS_P1;PMS_P2;Temp;Humidity;BMP_temperature;BMP_pressure;BME280_temperature;BME280_humidity;BME280_pressure;Samples;Min_cycle;Max_cycle;Signal;HPM_P1;HPM_P2
2022/11/02 00:02:15;;;;;;;22.98;12.43;;;;;;;5.56;69.70;100615.73;1766125;79;21122;-63
2022/11/02 00:04:43;;;;;;;23.15;12.35;;;;;;;5.54;69.91;100614.98;1765915;79;21043;-64
2022/11/02 00:07:09;;;;;;;22.95;12.78;;;;;;;5.55;69.93;100612.29;1763983;79;21053;-65
2022/11/02 00:09:36;;;;;;;32.70;21.97;;;;;;;5.63;69.71;100606.66;1769218;80;21138;-63
2022/11/02 00:12:03;;;;;;;29.60;21.00;;;;;;;5.67;69.53;100605.55;1766438;79;21075;-63
2022/11/02 00:14:31;;;;;;;31.90;21.62;;;;;;;5.68;69.54;100603.33;1770569;79;21042;-63
2022/11/02 00:16:59;;;;;;;33.05;23.18;;;;;;;5.70;69.80;100601.46;1768375;79;21086;-64
2022/11/02 00:19:26;;;;;;;32.90;21.50;;;;;;;5.71;70.10;100595.30;1762731;79;21026;-63
2022/11/02 00:21:54;;;;;;;28.52;20.10;;;;;;;5.76;70.20;100589.81;1765668;79;21315;-65
2022/11/02 00:24:21;;;;;;;34.73;22.20;;;;;;;5.85;69.97;100589.31;1763769;80;21010;-64
2022/11/02 00:26:47;;;;;;;36.55;23.57;;;;;;;5.92;69.73;100584.58;1768279;79;21122;-64
2022/11/02 00:29:14;;;;;;;33.60;23.50;;;;;;;5.90;69.73;100574.22;1772759;79;21473;-64
2022/11/02 00:31:40;;;;;;;33.85;22.35;;;;;;;5.89;69.85;100569.08;1766167;80;21686;-64
2022/11/02 00:34:08;;;;;;;34.95;22.70;;;;;;;5.86;69.93;100560.11;1770451;79;21918;-64
2022/11/02 00:36:35;;;;;;;38.02;22.93;;;;;;;5.81;69.95;100558.23;1763117;79;21025;-64
2022/11/02 00:39:03;;;;;;;35.85;21.90;;;;;;;5.76;69.93;100563.70;1766820;79;21032;-64
2022/11/02 00:41:30;;;;;;;32.70;22.05;;;;;;;5.78;69.80;100556.62;1766240;80;21094;-63
2022/11/02 00:43:57;;;;;;;31.40;22.32;;;;;;;5.77;69.72;100559.70;1763171;80;21017;-63
2022/11/02 00:46:23;;;;;;;34.33;23.35;;;;;;;5.70;69.67;100553.16;1794954;79;22181;-64
2022/11/02 00:48:50;;;;;;;28.65;21.62;;;;;;;5.63;69.67;100554.88;1767038;79;21078;-64
2022/11/02 00:51:17;;;;;;;23.22;10.90;;;;;;;5.54;69.87;100557.56;1774134;79;21086;-64
2022/11/02 00:53:44;;;;;;;18.52;9.75;;;;;;;5.49;69.99;100550.45;1778193;79;21027;-63
2022/11/02 00:56:11;;;;;;;31.80;20.82;;;;;;;5.46;69.94;100549.31;1774756;80;21106;-63
2022/11/02 00:58:38;;;;;;;33.28;21.65;;;;;;;5.50;69.68;100544.31;1756086;79;21242;-64
2022/11/02 01:01:06;;;;;;;32.23;22.27;;;;;;;5.50;69.45;100537.79;1774228;79;21010;-63
2022/11/02 01:03:33;;;;;;;39.38;23.77;;;;;;;5.44;69.47;100540.27;1773772;79;21087;-64
2022/11/02 01:06:12;;;;;;;34.30;24.80;;;;;;;5.36;69.57;100538.09;1775712;79;21122;-64
2022/11/02 01:08:39;;;;;;;35.95;24.60;;;;;;;5.31;69.74;100540.56;1749494;79;21042;-64
2022/11/02 01:11:16;;;;;;;23.67;11.55;;;;;;;5.26;69.90;100540.84;1740977;79;21258;-64
2022/11/02 01:13:43;;;;;;;23.50;13.50;;;;;;;5.25;69.87;100543.06;1772790;80;21042;-64
2022/11/02 01:16:11;;;;;;;41.30;26.73;;;;;;;5.29;69.82;100543.73;1781508;80;21030;-63
2022/11/02 01:18:38;;;;;;;37.78;25.52;;;;;;;5.30;69.92;100541.52;1774193;79;21045;-64
2022/11/02 01:21:06;;;;;;;36.60;25.12;;;;;;;5.29;70.16;100543.73;1780180;79;21035;-64
2022/11/02 01:23:35;;;;;;;42.80;27.90;;;;;;;5.25;70.27;100546.98;1781879;79;21186;-63
2022/11/02 01:26:06;;;;;;;42.30;26.33;;;;;;;5.24;70.61;100553.58;1772969;80;21011;-63
2022/11/02 01:28:35;;;;;;;26.52;12.63;;;;;;;5.25;70.62;100549.59;1772990;79;21556;-63
2022/11/02 01:31:02;;;;;;;37.35;25.85;;;;;;;5.31;70.43;100549.70;1711469;83;21581;-64
2022/11/02 01:33:29;;;;;;;33.83;24.27;;;;;;;5.30;70.44;100547.56;1739198;81;21520;-63
2022/11/02 01:35:55;;;;;;;33.23;25.05;;;;;;;5.28;70.58;100548.56;1714637;83;21177;-63
2022/11/02 01:38:23;;;;;;;38.00;24.90;;;;;;;5.26;70.69;100546.06;1700540;82;21031;-63
2022/11/02 01:40:50;;;;;;;36.33;23.90;;;;;;;5.22;70.79;100544.53;1697462;82;21024;-65
2022/11/02 01:43:21;;;;;;;39.13;23.98;;;;;;;5.25;70.83;100542.23;1687288;83;21054;-65
2022/11/02 01:46:09;;;;;;;34.05;23.10;;;;;;;5.28;70.45;100540.73;1686987;85;21686;-65
2022/11/02 01:48:54;;;;;;;34.53;24.75;;;;;;;5.28;70.38;100542.90;1709227;82;21981;-64
2022/11/02 01:51:41;;;;;;;34.55;24.07;;;;;;;5.27;70.65;100539.90;1739444;80;21555;-65
2022/11/02 01:54:13;;;;;;;39.25;24.52;;;;;;;5.25;70.57;100533.10;1711268;81;21689;-63
2022/11/02 01:56:39;;;;;;;35.50;24.60;;;;;;;5.20;70.39;100530.73;1704516;81;21091;-64
2022/11/02 01:59:11;;;;;;;33.60;22.90;;;;;;;5.13;70.23;100528.09;1687864;83;21071;-64
2022/11/02 02:01:38;;;;;;;34.35;23.10;;;;;;;5.09;70.18;100530.01;1687762;82;21797;-64
2022/11/02 02:04:05;;;;;;;21.77;10.93;;;;;;;5.10;70.05;100527.79;1708730;82;21115;-63
2022/11/02 02:06:33;;;;;;;36.60;24.30;;;;;;;5.11;70.02;100527.31;1714315;82;21597;-64
2022/11/02 02:09:03;;;;;;;25.08;10.60;;;;;;;5.07;70.13;100534.47;1714370;82;21536;-63
2022/11/02 02:11:33;;;;;;;35.25;23.18;;;;;;;5.03;70.21;100527.28;1713600;82;21043;-63
2022/11/02 02:14:14;;;;;;;34.65;22.90;;;;;;;5.00;70.20;100526.14;1695579;82;21019;-63
2022/11/02 02:17:11;;;;;;;27.35;12.00;;;;;;;4.93;70.07;100532.63;1708904;81;21027;-63
2022/11/02 02:19:47;;;;;;;34.73;22.82;;;;;;;4.90;70.18;100530.17;1698320;82;21047;-64
2022/11/02 02:22:56;;;;;;;23.10;12.87;;;;;;;4.97;70.45;100531.98;1694173;82;21114;-63
2022/11/02 02:26:02;;;;;;;28.35;10.98;;;;;;;5.01;70.73;100531.75;1697016;83;21023;-64
2022/11/02 02:28:35;;;;;;;31.52;22.65;;;;;;;4.99;70.92;100523.17;1651915;84;21211;-65
2022/11/02 02:31:19;;;;;;;33.85;22.10;;;;;;;4.96;70.81;100519.86;1711195;82;21024;-64
2022/11/02 02:33:54;;;;;;;19.87;11.15;;;;;;;4.90;70.82;100510.62;1772516;80;20995;-64
2022/11/02 02:36:32;;;;;;;21.85;9.60;;;;;;;4.87;70.72;100508.64;1762516;80;21412;-64
2022/11/02 02:39:04;;;;;;;31.52;20.70;;;;;;;4.89;70.62;100502.41;1749113;79;21008;-64
2022/11/02 02:41:39;;;;;;;19.73;11.22;;;;;;;4.89;70.73;100510.23;1773198;80;21134;-64
2022/11/02 02:44:10;;;;;;;20.17;9.40;;;;;;;4.89;70.94;100510.23;1774619;79;21492;-64
2022/11/02 02:46:58;;;;;;;28.35;18.75;;;;;;;4.86;71.04;100501.73;1777779;79;20976;-64
2022/11/02 02:49:50;;;;;;;19.27;10.60;;;;;;;4.80;71.05;100495.09;1766443;79;21994;-64
2022/11/02 02:52:17;;;;;;;24.32;18.02;;;;;;;4.75;71.07;100499.72;1764640;81;21521;-65
2022/11/02 02:54:45;;;;;;;15.10;8.75;;;;;;;4.71;70.94;100495.58;1707706;82;21219;-64
2022/11/02 02:57:15;;;;;;;15.32;7.92;;;;;;;4.75;70.67;100482.30;1762429;79;20952;-64
2022/11/02 02:59:44;;;;;;;27.55;19.37;;;;;;;4.78;70.51;100483.45;1770485;79;21537;-64
2022/11/02 03:02:31;;;;;;;19.75;10.00;;;;;;;4.71;70.37;100482.11;1761294;79;21457;-64
2022/11/02 03:04:58;;;;;;;16.30;8.35;;;;;;;4.65;70.37;100488.47;1773141;79;21082;-64
2022/11/02 03:07:31;;;;;;;17.98;9.80;;;;;;;4.55;70.36;100480.77;1764267;79;21276;-64
2022/11/02 03:10:11;;;;;;;21.10;9.43;;;;;;;4.48;70.50;100483.80;1772452;79;21567;-64
2022/11/02 03:12:47;;;;;;;23.50;16.42;;;;;;;4.42;70.62;100487.55;1769781;79;21086;-63
2022/11/02 03:15:21;;;;;;;27.10;16.67;;;;;;;4.41;70.72;100484.11;1743106;79;21089;-64
2022/11/02 03:17:55;;;;;;;20.55;9.73;;;;;;;4.48;70.59;100487.70;1768419;79;21000;-64
2022/11/02 03:20:29;;;;;;;15.43;8.80;;;;;;;4.52;70.74;100491.34;1805067;79;21215;-64
2022/11/02 03:23:33;;;;;;;29.67;19.48;;;;;;;4.48;70.82;100491.14;1763433;79;21034;-64
2022/11/02 03:26:29;;;;;;;30.02;20.20;;;;;;;4.43;70.94;100488.78;1756938;80;21543;-64
2022/11/02 03:29:17;;;;;;;19.82;8.43;;;;;;;4.36;71.18;100492.63;1761535;79;21069;-64
2022/11/02 03:31:59;;;;;;;18.12;9.33;;;;;;;4.35;71.26;100502.66;1763578;80;21369;-64
2022/11/02 03:34:31;;;;;;;27.22;19.20;;;;;;;4.37;71.29;100501.28;1760639;79;21145;-64
2022/11/02 03:37:52;;;;;;;21.07;10.60;;;;;;;4.38;71.36;100499.91;1757905;79;21043;-63
2022/11/02 03:40:32;;;;;;;29.00;18.65;;;;;;;4.34;71.47;100497.53;1742781;82;21066;-64
2022/11/02 03:42:59;;;;;;;21.23;9.38;;;;;;;4.26;71.67;100490.97;1760080;79;21016;-62
2022/11/02 03:45:32;;;;;;;25.52;18.48;;;;;;;4.24;71.73;100495.89;1764068;79;21082;-63
2022/11/02 03:48:02;;;;;;;30.75;18.50;;;;;;;4.23;71.84;100492.42;1770653;79;21825;-63
2022/11/02 03:50:29;;;;;;;17.73;9.33;;;;;;;4.28;71.34;100493.02;1765932;79;21060;-63
2022/11/02 03:53:02;;;;;;;27.48;19.50;;;;;;;4.27;71.07;100487.45;1764849;79;20917;-63
2022/11/02 03:55:33;;;;;;;26.87;18.92;;;;;;;4.23;71.04;100481.17;1749229;80;21008;-65
2022/11/02 03:58:00;;;;;;;18.23;8.40;;;;;;;4.20;71.23;100482.19;1766452;79;21027;-63
2022/11/02 04:00:33;;;;;;;19.20;10.08;;;;;;;4.20;71.34;100481.32;1774470;78;21172;-63
2022/11/02 04:03:06;;;;;;;27.55;18.92;;;;;;;4.17;71.32;100487.55;1753138;79;21090;-63
2022/11/02 04:05:35;;;;;;;32.95;19.10;;;;;;;4.16;71.21;100487.16;1741455;80;20999;-62
2022/11/02 04:08:23;;;;;;;21.52;8.88;;;;;;;4.22;70.96;100481.64;1779815;80;21051;-64
2022/11/02 04:16:23;;;;;;;14.58;8.73;;;;;;;4.24;71.42;100478.95;1751761;80;21101;-64
2022/11/02 04:21:36;;;;;;;20.90;9.65;;;;;;;4.13;71.18;100471.69;1770068;80;21011;-64
2022/11/02 04:26:51;;;;;;;26.82;18.55;;;;;;;4.17;70.81;100465.41;1766405;80;21280;-63
2022/11/02 04:29:18;;;;;;;31.45;19.75;;;;;;;4.21;70.81;100471.30;1768579;80;21023;-63
2022/11/02 04:31:45;;;;;;;25.92;18.17;;;;;;;4.19;71.08;100458.36;1766737;80;21051;-64
2022/11/02 04:34:13;;;;;;;27.00;17.92;;;;;;;4.24;71.44;100458.13;1769302;79;21029;-63
2022/11/02 04:36:41;;;;;;;28.00;17.52;;;;;;;4.27;71.58;100460.56;1778905;80;21038;-63
2022/11/02 04:39:09;;;;;;;17.95;8.20;;;;;;;4.29;71.57;100467.84;1774409;80;21248;-64
2022/11/02 04:41:42;;;;;;;18.50;9.00;;;;;;;4.37;71.50;100460.90;1782361;80;21496;-63
2022/11/02 04:44:19;;;;;;;26.20;18.07;;;;;;;4.42;71.56;100470.17;1758783;79;21015;-63
2022/11/02 04:46:50;;;;;;;23.67;16.95;;;;;;;4.45;71.75;100463.94;1759671;80;21078;-64
2022/11/02 04:49:17;;;;;;;18.87;8.83;;;;;;;4.44;71.84;100465.72;1765794;79;21062;-63
2022/11/02 04:51:45;;;;;;;29.18;16.70;;;;;;;4.42;71.88;100465.41;1768502;79;21090;-64
2022/11/02 04:54:11;;;;;;;24.45;16.17;;;;;;;4.40;71.88;100462.88;1771197;80;21045;-64
2022/11/02 04:56:39;;;;;;;29.37;17.07;;;;;;;4.42;71.76;100466.70;1766274;80;21080;-64
2022/11/02 04:59:06;;;;;;;26.07;17.32;;;;;;;4.49;71.62;100465.48;1764054;79;21104;-65
2022/11/02 05:01:35;;;;;;;18.17;9.35;;;;;;;4.55;71.62;100463.00;1760044;79;21067;-63
2022/11/02 05:04:04;;;;;;;26.20;17.90;;;;;;;4.57;71.72;100459.84;1764297;79;21228;-64
2022/11/02 05:06:32;;;;;;;26.65;18.15;;;;;;;4.57;71.73;100465.05;1757624;79;21010;-63
2022/11/02 05:09:00;;;;;;;19.17;9.75;;;;;;;4.57;71.76;100463.31;1767897;79;21027;-63
2022/11/02 05:11:29;;;;;;;20.40;9.40;;;;;;;4.61;71.81;100455.69;1759804;79;21120;-64
2022/11/02 05:13:55;;;;;;;24.77;16.93;;;;;;;4.70;71.65;100450.91;1761460;79;21056;-63
2022/11/02 05:16:24;;;;;;;27.07;17.77;;;;;;;4.77;71.48;100443.12;1758828;80;20994;-64
2022/11/02 05:18:51;;;;;;;25.02;17.00;;;;;;;4.80;71.46;100447.70;1754874;79;21034;-64
2022/11/02 05:21:18;;;;;;;27.05;16.85;;;;;;;4.79;71.49;100434.75;1758035;79;21027;-63
2022/11/02 05:23:47;;;;;;;21.33;9.80;;;;;;;4.77;71.44;100427.00;1758210;79;21650;-64
2022/11/02 05:26:13;;;;;;;19.62;9.00;;;;;;;4.77;71.47;100428.78;1766782;79;21854;-64
2022/11/02 05:28:43;;;;;;;16.55;9.65;;;;;;;4.79;71.53;100431.70;1762572;79;21148;-64
2022/11/02 05:31:09;;;;;;;25.57;17.25;;;;;;;4.75;71.29;100430.17;1762138;80;21106;-63
2022/11/02 05:33:38;;;;;;;19.65;8.88;;;;;;;4.73;71.14;100433.33;1773496;79;21049;-64
2022/11/02 05:36:08;;;;;;;18.55;10.10;;;;;;;4.74;70.89;100431.55;1760318;79;21022;-64
2022/11/02 05:38:35;;;;;;;25.77;19.17;;;;;;;4.76;70.73;100433.16;1750367;79;21049;-64
2022/11/02 05:41:01;;;;;;;33.25;19.98;;;;;;;4.77;70.80;100429.61;1764533;80;21226;-64
2022/11/02 05:43:30;;;;;;;27.65;18.92;;;;;;;4.77;70.79;100430.09;1761275;79;21180;-63
2022/11/02 05:46:00;;;;;;;26.45;18.73;;;;;;;4.74;70.82;100432.86;1722920;82;21046;-64
2022/11/02 05:48:30;;;;;;;30.20;21.27;;;;;;;4.73;70.95;100429.89;1748907;79;21635;-64
2022/11/02 05:50:58;;;;;;;16.10;10.13;;;;;;;4.71;70.99;100426.50;1769233;79;21516;-64
2022/11/02 05:54:18;;;;;;;32.48;21.17;;;;;;;4.73;71.11;100431.19;1795168;78;22204;-66
2022/11/02 05:56:44;;;;;;;30.72;20.90;;;;;;;4.82;70.64;100438.49;1779096;80;21072;-64
2022/11/02 05:59:11;;;;;;;30.45;20.92;;;;;;;4.83;70.86;100434.97;1784343;80;21270;-64
2022/11/02 06:01:38;;;;;;;30.95;13.53;;;;;;;4.80;70.99;100435.97;1786751;80;21042;-65
2022/11/02 06:04:06;;;;;;;33.98;22.48;;;;;;;4.82;71.14;100436.75;1785951;80;21097;-64
2022/11/02 06:06:33;;;;;;;34.55;23.27;;;;;;;4.92;71.04;100437.53;1773657;80;21019;-65
2022/11/02 06:09:01;;;;;;;30.50;20.50;;;;;;;4.99;70.98;100438.86;1780141;80;21046;-64
2022/11/02 06:11:28;;;;;;;25.62;13.80;;;;;;;5.00;71.17;100433.56;1767836;80;21264;-64
2022/11/02 06:13:55;;;;;;;35.58;21.33;;;;;;;5.04;71.35;100442.05;1763119;80;20954;-63
2022/11/02 06:16:21;;;;;;;30.10;19.55;;;;;;;5.06;71.46;100443.27;1776900;80;21070;-64
2022/11/02 06:18:48;;;;;;;18.73;9.38;;;;;;;5.12;71.54;100448.98;1763957;80;21010;-64
2022/11/02 06:21:16;;;;;;;23.05;10.78;;;;;;;5.24;71.53;100449.23;1787969;80;21062;-64
2022/11/02 06:23:42;;;;;;;30.85;20.08;;;;;;;5.35;71.56;100441.64;1770769;80;21210;-64
2022/11/02 06:26:11;;;;;;;27.75;19.45;;;;;;;5.39;71.73;100449.18;1779610;80;21058;-64
2022/11/02 06:28:38;;;;;;;25.65;18.17;;;;;;;5.47;71.86;100452.66;1786055;80;21128;-63
2022/11/02 06:31:05;;;;;;;26.42;17.77;;;;;;;5.53;71.86;100454.06;1775728;80;21106;-64
2022/11/02 06:33:32;;;;;;;25.90;17.05;;;;;;;5.59;71.64;100453.72;1771117;80;21043;-64
2022/11/02 06:35:59;;;;;;;25.48;17.65;;;;;;;5.73;71.11;100455.08;1769304;80;21241;-64
2022/11/02 06:38:26;;;;;;;20.37;9.40;;;;;;;5.84;70.93;100453.60;1767832;80;21360;-64
2022/11/02 06:40:56;;;;;;;25.97;17.95;;;;;;;5.98;70.75;100448.41;1760402;80;21083;-65
2022/11/02 06:43:23;;;;;;;27.32;19.27;;;;;;;6.10;70.55;100445.08;1765737;80;21065;-63
2022/11/02 06:45:50;;;;;;;19.85;8.70;;;;;;;6.20;70.11;100449.26;1770769;80;21072;-63
2022/11/02 06:48:16;;;;;;;29.67;17.95;;;;;;;6.29;69.65;100451.80;1739995;80;21230;-63
2022/11/02 06:50:43;;;;;;;25.35;17.25;;;;;;;6.35;69.24;100450.10;1767634;80;21039;-63
2022/11/02 06:53:10;;;;;;;28.02;17.82;;;;;;;6.50;68.52;100444.41;1769872;80;21008;-62
2022/11/02 06:55:38;;;;;;;17.60;10.03;;;;;;;6.61;67.88;100445.89;1744068;80;21075;-63
2022/11/02 06:58:04;;;;;;;32.93;16.48;;;;;;;6.69;67.57;100449.31;1757372;80;21118;-63
2022/11/02 07:00:32;;;;;;;27.25;18.67;;;;;;;6.75;66.53;100448.94;1766382;80;21031;-62
2022/11/02 07:03:06;;;;;;;25.50;16.87;;;;;;;6.77;65.70;100454.91;1769739;80;21035;-62
2022/11/02 07:05:35;;;;;;;18.82;10.28;;;;;;;6.78;64.15;100456.59;1771693;80;26639;-62
2022/11/02 07:08:01;;;;;;;23.50;10.80;;;;;;;6.79;62.83;100461.34;1759446;80;21029;-62
2022/11/02 07:10:28;;;;;;;24.37;17.45;;;;;;;6.79;63.11;100460.91;1752266;80;20999;-62
2022/11/02 07:12:56;;;;;;;25.37;18.15;;;;;;;6.81;63.41;100459.02;1744874;80;21244;-62
2022/11/02 07:15:24;;;;;;;30.88;18.12;;;;;;;6.92;63.16;100457.50;1757795;80;21019;-61
2022/11/02 07:17:51;;;;;;;25.85;18.80;;;;;;;7.10;63.01;100460.25;1759813;80;21051;-62
2022/11/02 07:20:19;;;;;;;29.52;19.95;;;;;;;7.20;62.89;100463.95;1755140;80;21036;-61
2022/11/02 07:22:57;;;;;;;31.57;20.95;;;;;;;7.23;62.76;100465.06;1747429;80;21063;-61
2022/11/02 07:25:25;;;;;;;28.55;20.08;;;;;;;7.27;62.06;100473.55;1756651;80;21215;-62
2022/11/02 07:27:53;;;;;;;29.57;19.37;;;;;;;7.30;61.78;100469.91;1748399;80;21007;-61
2022/11/02 07:30:20;;;;;;;26.85;20.32;;;;;;;7.34;62.28;100466.14;1758820;80;21585;-62
2022/11/02 07:32:47;;;;;;;28.83;20.32;;;;;;;7.42;62.24;100469.10;1742489;82;21047;-61
2022/11/02 07:35:15;;;;;;;29.50;19.17;;;;;;;7.50;61.03;100466.82;1762766;80;21042;-61
2022/11/02 07:37:42;;;;;;;30.35;19.32;;;;;;;7.53;60.20;100458.77;1759866;80;21249;-62
2022/11/02 07:40:11;;;;;;;26.33;18.52;;;;;;;7.58;59.77;100460.61;1761050;80;21035;-62
2022/11/02 07:42:49;;;;;;;29.60;19.35;;;;;;;7.66;58.74;100464.02;1744373;80;21059;-62
2022/11/02 07:45:15;;;;;;;29.40;19.57;;;;;;;7.70;58.32;100462.02;1757659;80;21024;-61
2022/11/02 07:47:44;;;;;;;28.73;20.27;;;;;;;7.72;57.85;100459.69;1749135;80;21565;-61
2022/11/02 07:50:14;;;;;;;30.70;19.80;;;;;;;7.74;57.14;100461.72;1743835;80;21223;-62
2022/11/02 07:52:50;;;;;;;29.57;19.67;;;;;;;7.78;57.04;100461.05;1753297;80;21074;-62
2022/11/02 07:55:18;;;;;;;;;;;;;;;7.81;56.63;100456.43;1760463;80;21055;-63
2022/11/02 07:58:01;;;;;;;35.50;21.17;;;;;;;7.88;56.74;100454.23;1754192;80;20184;-61
2022/11/02 08:00:32;;;;;;;33.53;23.02;;;;;;;7.92;56.36;100453.59;1757596;80;21075;-61
2022/11/02 08:03:01;;;;;;;35.65;23.95;;;;;;;7.99;56.23;100443.05;1761168;80;21109;-62
2022/11/02 08:05:28;;;;;;;33.35;24.55;;;;;;;8.06;55.81;100437.75;1763144;80;21081;-63
2022/11/02 08:08:01;;;;;;;33.98;24.27;;;;;;;8.13;55.17;100442.09;1703417;82;21049;-61
2022/11/02 08:10:29;;;;;;;36.95;26.80;;;;;;;8.18;55.20;100437.37;1769802;80;21078;-62
2022/11/02 08:12:56;;;;;;;35.85;26.23;;;;;;;8.25;55.15;100443.03;1764834;80;21023;-62
2022/11/02 08:15:24;;;;;;;35.45;25.45;;;;;;;8.30;55.09;100440.44;1757910;80;21204;-63
2022/11/02 08:18:04;;;;;;;35.95;24.90;;;;;;;8.37;55.39;100440.41;1758872;80;21039;-63
2022/11/02 08:20:31;;;;;;;40.10;25.55;;;;;;;8.48;55.03;100442.77;1717999;81;21087;-62
2022/11/02 08:22:57;;;;;;;34.63;26.40;;;;;;;8.56;54.73;100439.14;1707947;82;21059;-61
2022/11/02 08:25:24;;;;;;;43.35;26.02;;;;;;;8.62;54.57;100441.31;1768185;80;21062;-62
2022/11/02 08:27:50;;;;;;;41.37;27.82;;;;;;;8.69;54.36;100445.20;1759189;80;21237;-61
2022/11/02 08:30:17;;;;;;;36.93;26.68;;;;;;;8.77;54.52;100445.11;1769335;80;21059;-61
2022/11/02 08:32:44;;;;;;;34.15;24.47;;;;;;;8.87;54.59;100448.75;1757645;80;21082;-61
2022/11/02 08:35:11;;;;;;;37.28;23.22;;;;;;;8.96;54.42;100448.10;1761130;80;21548;-62
2022/11/02 08:37:37;;;;;;;35.55;23.73;;;;;;;9.05;54.41;100441.34;1757276;80;21481;-61
2022/11/02 08:40:06;;;;;;;29.45;22.48;;;;;;;9.15;54.63;100446.28;1768641;80;21884;-62
2022/11/02 08:42:33;;;;;;;35.15;22.55;;;;;;;9.22;54.66;100441.42;1758928;80;21012;-61
2022/11/02 08:45:00;;;;;;;33.78;23.70;;;;;;;9.31;54.35;100440.73;1759854;80;21054;-62
2022/11/02 08:47:26;;;;;;;38.58;23.67;;;;;;;9.34;54.46;100441.81;1751277;80;21047;-61
2022/11/02 08:50:00;;;;;;;33.48;24.47;;;;;;;9.37;54.41;100437.66;1755842;80;21044;-61
2022/11/02 08:52:26;;;;;;;34.50;24.35;;;;;;;9.43;54.35;100437.66;1761034;80;21512;-61
2022/11/02 08:54:53;;;;;;;41.08;24.65;;;;;;;9.49;54.33;100435.91;1758015;80;21011;-61
2022/11/02 08:57:20;;;;;;;30.48;24.57;;;;;;;9.53;54.21;100436.52;1748219;80;21047;-61
2022/11/02 08:59:47;;;;;;;36.53;24.47;;;;;;;9.60;54.25;100433.77;1753292;80;21058;-62
2022/11/02 09:02:13;;;;;;;38.63;25.37;;;;;;;9.66;54.26;100429.38;1755137;80;21113;-61
2022/11/02 09:04:40;;;;;;;34.67;24.60;;;;;;;9.74;54.22;100427.02;1752775;80;21243;-62
2022/11/02 09:07:06;;;;;;;38.23;26.15;;;;;;;9.79;54.15;100422.73;1751102;80;22325;-62
2022/11/02 09:09:32;;;;;;;36.70;25.85;;;;;;;9.84;53.83;100420.10;1745776;80;21062;-62
2022/11/02 09:11:59;;;;;;;33.38;24.25;;;;;;;9.91;53.63;100413.91;1746653;80;21055;-61
2022/11/02 09:14:26;;;;;;;35.23;25.48;;;;;;;9.98;53.48;100414.27;1750829;80;21049;-61
2022/11/02 09:16:54;;;;;;;43.90;26.12;;;;;;;10.04;53.40;100409.38;1758419;80;21235;-61
2022/11/02 09:19:21;;;;;;;39.63;26.20;;;;;;;10.10;53.12;100405.42;1744589;80;21079;-62
2022/11/02 09:21:49;;;;;;;36.95;25.48;;;;;;;10.17;52.98;100396.58;1746731;80;21052;-61
2022/11/02 09:24:16;;;;;;;45.35;26.17;;;;;;;10.25;52.66;100401.25;1753169;80;21048;-61
2022/11/02 09:26:43;;;;;;;37.53;24.37;;;;;;;10.33;52.47;100401.03;1754100;80;21142;-61
2022/11/02 09:29:09;;;;;;;35.80;25.32;;;;;;;10.43;52.25;100400.32;1746198;80;21240;-62
2022/11/02 09:31:36;;;;;;;36.75;25.48;;;;;;;10.51;52.12;100392.17;1754973;80;21064;-62
2022/11/02 09:34:03;;;;;;;34.60;25.05;;;;;;;10.63;51.72;100397.42;1752631;80;21043;-62
2022/11/02 09:36:29;;;;;;;38.63;25.72;;;;;;;10.73;51.67;100390.45;1744152;80;21015;-62
2022/11/02 09:38:57;;;;;;;39.27;24.92;;;;;;;10.82;50.41;100392.33;1742825;80;21084;-63
2022/11/02 09:41:46;;;;;;;33.13;24.60;;;;;;;10.93;50.62;100390.98;1753980;80;21241;-63
2022/11/02 09:44:18;;;;;;;35.10;24.85;;;;;;;11.01;49.62;100398.73;1747624;80;20963;-62
2022/11/02 09:46:45;;;;;;;40.35;26.50;;;;;;;11.12;49.63;100388.16;1733124;80;21054;-62
2022/11/02 09:49:21;;;;;;;40.80;26.02;;;;;;;11.21;48.71;100395.29;1751617;80;21046;-62
2022/11/02 09:51:51;;;;;;;36.45;24.55;;;;;;;11.28;48.69;100383.30;1758904;80;21747;-61
2022/11/02 09:54:36;;;;;;;31.95;25.23;;;;;;;11.40;48.94;100385.86;1742037;80;21140;-61
2022/11/02 09:57:10;;;;;;;39.40;25.72;;;;;;;11.47;48.34;100387.87;1718975;82;21086;-61
2022/11/02 09:59:36;;;;;;;35.58;24.12;;;;;;;11.57;48.73;100391.89;1725131;80;21075;-62
2022/11/02 10:02:32;;;;;;;36.17;24.18;;;;;;;11.65;48.28;100391.22;1718217;82;21102;-61
2022/11/02 10:05:13;;;;;;;34.55;23.80;;;;;;;11.70;47.16;100387.25;1714634;80;21099;-61
2022/11/02 10:08:20;;;;;;;34.05;22.70;;;;;;;11.81;47.20;100385.50;1670883;84;21929;-61
2022/11/02 10:11:08;;;;;;;37.65;24.18;;;;;;;11.90;47.23;100393.47;1667401;84;21075;-61
2022/11/02 10:13:55;;;;;;;32.58;23.50;;;;;;;11.99;46.49;100389.23;1722169;80;21023;-61
2022/11/02 10:16:27;;;;;;;32.78;24.00;;;;;;;12.07;46.67;100387.27;1728311;81;21106;-61
2022/11/02 10:18:54;;;;;;;32.35;22.02;;;;;;;12.14;46.82;100380.95;1682280;84;21089;-60
2022/11/02 10:21:31;;;;;;;36.77;23.52;;;;;;;12.19;46.67;100379.59;1691676;82;21259;-61
2022/11/02 10:24:14;;;;;;;34.75;23.70;;;;;;;12.26;46.58;100387.32;1684207;83;21494;-61
2022/11/02 10:26:42;;;;;;;35.35;23.52;;;;;;;12.33;46.36;100392.08;1645125;82;21068;-61
2022/11/02 10:30:26;;;;;;;33.35;23.07;;;;;;;12.41;45.64;100389.11;1791141;77;22617;-62
2022/11/02 10:32:53;;;;;;;34.98;24.80;;;;;;;12.52;45.80;100389.97;1773409;78;21090;-63
2022/11/02 10:35:28;;;;;;;34.38;23.38;;;;;;;12.56;45.77;100386.10;1773351;79;22160;-62
2022/11/02 10:38:15;;;;;;;36.77;26.20;;;;;;;12.59;45.50;100386.66;1780894;79;20970;-62
2022/11/02 10:41:08;;;;;;;35.98;23.30;;;;;;;12.63;45.39;100378.80;1763373;79;21652;-62
2022/11/02 10:44:06;;;;;;;33.05;23.90;;;;;;;12.67;44.75;100375.41;1764438;79;21039;-61
2022/11/02 10:46:59;;;;;;;33.35;24.72;;;;;;;12.71;45.34;100364.08;1781366;78;22207;-62
2022/11/02 10:50:10;;;;;;;34.55;23.65;;;;;;;12.73;45.17;100369.59;1765325;79;21157;-62
2022/11/02 10:52:39;;;;;;;32.95;24.98;;;;;;;12.76;45.46;100375.92;1782393;78;20979;-61
2022/11/02 10:55:10;;;;;;;32.75;23.70;;;;;;;12.80;44.92;100379.94;1779931;78;21511;-62
2022/11/02 10:57:37;;;;;;;30.97;23.75;;;;;;;12.82;45.31;100383.27;1772116;78;21050;-61
2022/11/02 11:00:32;;;;;;;34.15;23.40;;;;;;;12.88;45.07;100383.69;1771454;78;21039;-61
2022/11/02 11:03:12;;;;;;;29.77;22.37;;;;;;;12.94;44.81;100376.55;1780099;78;21273;-62
2022/11/02 11:05:56;;;;;;;33.55;23.73;;;;;;;12.94;44.81;100376.55;1781898;78;21078;-62
2022/11/02 11:08:41;;;;;;;34.18;23.55;;;;;;;12.98;44.94;100377.95;1776900;78;21555;-63
2022/11/02 11:11:20;;;;;;;34.63;22.87;;;;;;;13.03;44.90;100374.88;1771319;79;21066;-63
2022/11/02 11:14:15;;;;;;;32.17;21.52;;;;;;;13.09;44.29;100377.80;1763592;78;21097;-63
2022/11/02 11:16:52;;;;;;;37.15;23.47;;;;;;;13.13;44.69;100371.28;1769460;78;21182;-62
2022/11/02 11:19:26;;;;;;;35.95;22.55;;;;;;;13.19;43.96;100373.83;1770436;78;22018;-62
2022/11/02 11:21:53;;;;;;;36.83;23.70;;;;;;;13.23;44.36;100378.34;1767638;78;21583;-63
2022/11/02 11:24:30;;;;;;;30.97;22.60;;;;;;;13.26;44.36;100376.75;1773631;79;21428;-63
2022/11/02 11:27:18;;;;;;;32.90;23.65;;;;;;;13.27;44.44;100366.05;1777418;79;20986;-62
2022/11/02 11:29:55;;;;;;;28.95;22.75;;;;;;;13.32;44.55;100366.98;1766556;79;22253;-64
2022/11/02 11:32:28;;;;;;;33.75;23.98;;;;;;;13.37;44.45;100368.22;1757159;79;21122;-62
2022/11/02 11:35:01;;;;;;;31.05;22.60;;;;;;;13.44;44.11;100371.63;1792547;79;20979;-63
2022/11/02 11:37:28;;;;;;;36.40;22.35;;;;;;;13.50;43.87;100373.21;1763560;79;21102;-63
2022/11/02 11:40:04;;;;;;;34.18;21.93;;;;;;;13.59;43.58;100368.05;1787547;79;21468;-60
2022/11/02 11:42:33;;;;;;;;;;;;;;;13.65;43.26;100368.78;1778649;79;21116;-60
2022/11/02 11:45:22;;;;;;;33.78;22.62;;;;;;;13.71;43.24;100360.28;1779264;79;20859;-61
2022/11/02 11:48:06;;;;;;;32.50;20.90;;;;;;;13.75;43.28;100361.19;1770987;79;21086;-62
2022/11/02 11:50:33;;;;;;;28.38;20.25;;;;;;;13.86;43.37;100363.30;1767407;78;21019;-62
2022/11/02 11:53:25;;;;;;;27.62;20.02;;;;;;;13.92;43.12;100359.59;1765336;79;20989;-62